createdAt,value
2023-06-30T00:02:36.517Z,100115.44
2023-06-30T00:05:39.254Z,100116.62
2023-06-30T00:08:41.716Z,100133.41
2023-06-30T00:11:44.336Z,100132.22
2023-06-30T00:14:46.637Z,100111.47
2023-06-30T00:17:49.798Z,100133.81
2023-06-30T00:20:52.255Z,100131.44
2023-06-30T00:23:54.921Z,100133.06
2023-06-30T00:26:57.380Z,100126.69
2023-06-30T00:29:59.980Z,100122.72
2023-06-30T00:33:02.567Z,100111.56
2023-06-30T00:36:05.405Z,100112.38
2023-06-30T00:39:07.780Z,100130.72
2023-06-30T00:42:10.893Z,100123.53
2023-06-30T00:45:13.368Z,100126.75
2023-06-30T00:48:18.611Z,100122.34
2023-06-30T00:51:21.313Z,100127.53
2023-06-30T00:54:25.605Z,100122.75
2023-06-30T00:57:27.975Z,100098.44
2023-06-30T01:00:30.650Z,100114.41
2023-06-30T01:04:13.420Z,100098.03
2023-06-30T01:07:38.386Z,100110.81
2023-06-30T01:10:43.425Z,100114.78
2023-06-30T01:13:47.949Z,100090.06
2023-06-30T01:16:51.578Z,100107.63
2023-06-30T01:19:55.841Z,100099.69
2023-06-30T01:23:08.665Z,100110.84
2023-06-30T01:26:11.855Z,100113.25
2023-06-30T01:29:14.831Z,100110.84
2023-06-30T01:32:18.237Z,100113.28
2023-06-30T01:35:20.691Z,100102.88
2023-06-30T01:38:23.328Z,100096.88
2023-06-30T01:41:25.769Z,100102.06
2023-06-30T01:44:28.594Z,100106.06
2023-06-30T01:47:31.016Z,100090.91
2023-06-30T01:50:34.143Z,100099.66
2023-06-30T01:53:36.545Z,100101.69
2023-06-30T01:56:48.327Z,100097.28
2023-06-30T01:59:51.074Z,100076.53
2023-06-30T02:02:53.806Z,100099.28
2023-06-30T02:05:56.618Z,100098.09
2023-06-30T02:08:58.983Z,100080.53
2023-06-30T02:12:01.586Z,100077.34
2023-06-30T02:15:04.890Z,100075.75
2023-06-30T02:18:07.716Z,100100.91
2023-06-30T02:21:11.302Z,100077.34
2023-06-30T02:24:13.688Z,100075.75
2023-06-30T02:27:18.162Z,100094.13
2023-06-30T02:30:20.982Z,100074.94
2023-06-30T02:33:24.507Z,100084.53
2023-06-30T02:36:26.991Z,100069.78
2023-06-30T02:39:30.631Z,100086.12
2023-06-30T02:42:33.225Z,100070.97
2023-06-30T02:45:35.912Z,100070.16
2023-06-30T02:48:38.305Z,100086.12
2023-06-30T02:51:41.224Z,100067.00
2023-06-30T02:54:43.606Z,100070.94
2023-06-30T02:57:46.249Z,100076.12
2023-06-30T03:00:50.638Z,100068.19
2023-06-30T03:03:54.103Z,100084.09
2023-06-30T03:06:57.729Z,100087.72
2023-06-30T03:10:02.254Z,100082.53
2023-06-30T03:13:04.715Z,100074.16
2023-06-30T03:16:08.408Z,100074.94
2023-06-30T03:19:11.061Z,100076.12
2023-06-30T03:22:13.864Z,100092.50
2023-06-30T03:25:17.242Z,100080.53
2023-06-30T03:28:19.934Z,100068.94
2023-06-30T03:31:22.452Z,100083.72
2023-06-30T03:34:25.752Z,100083.72
2023-06-30T03:37:28.102Z,100084.53
2023-06-30T03:40:30.971Z,100066.19
2023-06-30T03:43:34.256Z,100072.94
2023-06-30T03:46:38.646Z,100063.38
2023-06-30T03:49:40.919Z,100061.78
2023-06-30T03:52:43.537Z,100080.53
2023-06-30T03:55:46.130Z,100058.19
2023-06-30T03:58:49.044Z,100064.56
2023-06-30T04:01:51.660Z,100080.94
2023-06-30T04:04:54.313Z,100080.53
2023-06-30T04:07:56.951Z,100084.53
2023-06-30T04:10:59.657Z,100068.56
2023-06-30T04:14:02.228Z,100077.72
2023-06-30T04:17:05.376Z,100081.31
2023-06-30T04:20:10.582Z,100079.72
2023-06-30T04:23:13.669Z,100077.34
2023-06-30T04:26:19.052Z,100061.78
2023-06-30T04:29:21.662Z,100083.31
2023-06-30T04:32:24.018Z,100078.53
2023-06-30T04:35:27.012Z,100068.97
2023-06-30T04:38:29.380Z,100069.34
2023-06-30T04:41:32.042Z,100070.16
2023-06-30T04:44:34.416Z,100080.53
2023-06-30T04:47:37.334Z,100076.53
2023-06-30T04:50:39.901Z,100058.19
2023-06-30T04:53:43.273Z,100049.41
2023-06-30T04:56:45.728Z,100059.78
2023-06-30T04:59:48.317Z,100066.16
2023-06-30T05:02:50.975Z,100066.97
2023-06-30T05:05:53.695Z,100049.41
2023-06-30T05:08:56.111Z,100045.44
2023-06-30T05:11:58.745Z,100070.19
2023-06-30T05:15:01.077Z,100041.44
2023-06-30T05:18:03.876Z,100056.56
2023-06-30T05:21:09.933Z,100066.56
2023-06-30T05:24:12.725Z,100062.53
2023-06-30T05:27:15.413Z,100042.97
2023-06-30T05:30:19.144Z,100046.12
2023-06-30T05:33:21.456Z,100064.44
2023-06-30T05:36:24.211Z,100047.66
2023-06-30T05:39:26.601Z,100053.63
2023-06-30T05:42:29.280Z,100051.59
2023-06-30T05:45:31.672Z,100066.66
2023-06-30T05:48:34.299Z,100051.47
2023-06-30T05:51:37.371Z,100066.56
2023-06-30T05:54:39.976Z,100061.75
2023-06-30T05:57:42.290Z,100068.13
2023-06-30T06:00:44.991Z,100076.03
2023-06-30T06:03:48.439Z,100063.94
2023-06-30T06:06:50.969Z,100070.28
2023-06-30T06:09:53.656Z,100058.25
2023-06-30T06:12:56.081Z,100055.75
2023-06-30T06:15:58.829Z,100056.88
2023-06-30T06:19:01.215Z,100080.25
2023-06-30T06:22:03.918Z,100076.56
2023-06-30T06:25:06.987Z,100068.16
2023-06-30T06:28:09.635Z,100078.31
2023-06-30T06:31:12.279Z,100066.03
2023-06-30T06:34:15.254Z,100071.41
2023-06-30T06:37:17.752Z,100062.12
2023-06-30T06:40:20.463Z,100056.47
2023-06-30T06:43:27.405Z,100049.47
2023-06-30T06:46:30.178Z,100065.53
2023-06-30T06:49:32.581Z,100047.22
2023-06-30T06:52:35.972Z,100052.66
2023-06-30T06:55:38.379Z,100060.06
2023-06-30T06:58:41.033Z,100062.81
2023-06-30T07:01:43.456Z,100042.59
2023-06-30T07:04:46.101Z,100062.16
2023-06-30T07:07:48.550Z,100047.75
2023-06-30T07:10:51.773Z,100060.22
2023-06-30T07:13:54.287Z,100049.09
2023-06-30T07:16:56.952Z,100055.94
2023-06-30T07:19:59.689Z,100059.66
2023-06-30T07:23:02.418Z,100056.66
2023-06-30T07:26:04.744Z,100047.72
2023-06-30T07:29:07.368Z,100038.22
2023-06-30T07:32:09.905Z,100065.97
2023-06-30T07:35:12.606Z,100052.69
2023-06-30T07:38:15.262Z,100052.44
2023-06-30T07:41:17.921Z,100053.38
2023-06-30T07:44:21.771Z,100043.75
2023-06-30T07:47:24.448Z,100042.62
2023-06-30T07:50:26.956Z,100037.31
2023-06-30T07:53:29.552Z,100039.94
2023-06-30T07:56:31.888Z,100043.66
2023-06-30T07:59:34.864Z,100045.53
2023-06-30T08:02:38.157Z,100043.56
2023-06-30T08:05:41.120Z,100021.72
2023-06-30T08:08:43.922Z,100023.91
2023-06-30T08:11:46.563Z,100032.69
2023-06-30T08:14:49.653Z,100030.13
2023-06-30T08:17:56.873Z,100028.34
2023-06-30T08:21:03.104Z,100028.47
2023-06-30T08:24:06.041Z,100026.22
2023-06-30T08:27:08.854Z,100020.56
2023-06-30T08:30:11.787Z,99996.59
2023-06-30T08:33:23.085Z,100009.16
2023-06-30T08:36:36.863Z,100016.47
2023-06-30T08:39:40.478Z,100024.44
2023-06-30T08:42:49.695Z,100021.16
2023-06-30T08:45:54.378Z,100017.06
2023-06-30T08:48:57.234Z,100036.09
2023-06-30T08:52:00.530Z,100031.56
2023-06-30T08:55:04.182Z,100014.19
2023-06-30T08:58:13.497Z,100026.06
2023-06-30T09:01:21.422Z,100001.28
2023-06-30T09:04:24.320Z,100016.78
2023-06-30T09:07:29.053Z,100028.09
2023-06-30T09:10:35.429Z,100012.09
2023-06-30T09:13:43.109Z,100007.19
2023-06-30T09:16:49.564Z,100011.81
2023-06-30T09:19:53.095Z,100010.22
2023-06-30T09:22:57.305Z,99988.91
2023-06-30T09:26:00.315Z,100002.03
2023-06-30T09:29:03.737Z,100005.19
2023-06-30T09:32:06.905Z,100000.44
2023-06-30T09:35:10.068Z,99990.66
2023-06-30T09:38:17.251Z,99991.91
2023-06-30T09:41:22.089Z,100003.25
2023-06-30T09:44:25.464Z,99997.12
2023-06-30T09:47:27.895Z,99971.56
2023-06-30T09:50:33.464Z,99983.63
2023-06-30T09:53:37.518Z,99963.75
2023-06-30T09:56:41.615Z,99961.97
2023-06-30T09:59:46.677Z,99983.88
2023-06-30T10:03:04.238Z,99965.91
2023-06-30T10:06:07.026Z,99979.03
2023-06-30T10:09:09.767Z,99963.56
2023-06-30T10:12:14.451Z,99983.09
2023-06-30T10:15:16.976Z,99983.41
2023-06-30T10:18:20.413Z,99983.63
2023-06-30T10:21:22.822Z,99978.06
2023-06-30T10:24:28.449Z,99962.91
2023-06-30T10:27:31.632Z,99971.44
2023-06-30T10:30:35.562Z,99973.88
2023-06-30T10:33:39.213Z,99975.47
2023-06-30T10:36:43.360Z,99981.72
2023-06-30T10:39:47.535Z,99966.78
2023-06-30T10:42:54.272Z,99958.41
2023-06-30T10:46:12.843Z,99962.66
2023-06-30T10:49:22.042Z,99973.81
2023-06-30T10:52:32.372Z,99976.72
2023-06-30T10:55:35.122Z,99963.75
2023-06-30T10:58:41.992Z,99959.22
2023-06-30T11:02:15.000Z,99941.94
2023-06-30T11:05:25.523Z,99956.44
2023-06-30T11:08:28.952Z,99930.63
2023-06-30T11:11:52.310Z,99941.91
2023-06-30T11:14:59.870Z,99949.53
2023-06-30T11:18:04.193Z,99937.28
2023-06-30T11:21:08.168Z,99927.56
2023-06-30T11:24:16.166Z,99935.84
2023-06-30T11:27:20.185Z,99919.91
2023-06-30T11:30:23.811Z,99923.34
2023-06-30T11:33:26.480Z,99915.38
2023-06-30T11:36:32.206Z,99921.19
2023-06-30T11:39:37.907Z,99910.37
2023-06-30T11:42:41.136Z,99911.66
2023-06-30T11:45:45.312Z,99903.88
2023-06-30T11:48:49.234Z,99924.25
2023-06-30T11:51:51.977Z,99898.75
2023-06-30T11:54:54.343Z,99903.75
2023-06-30T11:57:57.023Z,99896.50
2023-06-30T12:00:59.505Z,99870.25
2023-06-30T12:04:09.879Z,99869.53
2023-06-30T12:07:15.535Z,99877.00
2023-06-30T12:10:18.576Z,99864.16
2023-06-30T12:13:21.361Z,99875.16
2023-06-30T12:16:27.764Z,99884.88
2023-06-30T12:19:30.232Z,99866.88
2023-06-30T12:22:36.475Z,99857.50
2023-06-30T12:25:39.273Z,99844.97
2023-06-30T12:28:44.635Z,99859.31
2023-06-30T12:31:48.529Z,99847.87
2023-06-30T12:35:06.093Z,99850.72
2023-06-30T12:38:10.446Z,99848.91
2023-06-30T12:41:13.110Z,99854.69
2023-06-30T12:44:15.797Z,99834.34
2023-06-30T12:47:18.340Z,99842.72
2023-06-30T12:50:23.374Z,99836.84
2023-06-30T12:53:26.036Z,99825.00
2023-06-30T12:56:28.359Z,99824.09
2023-06-30T12:59:31.426Z,99821.81
2023-06-30T13:02:34.664Z,99839.56
2023-06-30T13:05:38.223Z,99831.28
2023-06-30T13:08:40.617Z,99829.06
2023-06-30T13:11:43.931Z,99814.56
2023-06-30T13:14:46.247Z,99816.06
2023-06-30T13:17:48.931Z,99816.34
2023-06-30T13:20:51.354Z,99822.06
2023-06-30T13:23:54.109Z,99811.37
2023-06-30T13:26:56.773Z,99790.75
2023-06-30T13:30:00.208Z,99804.28
2023-06-30T13:33:02.633Z,99812.78
2023-06-30T13:36:05.839Z,99795.91
2023-06-30T13:39:08.188Z,99786.16
2023-06-30T13:42:10.969Z,99786.88
2023-06-30T13:45:13.454Z,99772.09
2023-06-30T13:48:16.266Z,99758.22
2023-06-30T13:51:18.763Z,99779.34
2023-06-30T13:54:24.061Z,99769.88
2023-06-30T13:57:26.579Z,99759.81
2023-06-30T14:00:30.614Z,99759.84
2023-06-30T14:03:34.445Z,99762.38
2023-06-30T14:06:37.205Z,99745.69
2023-06-30T14:09:42.602Z,99757.19
2023-06-30T14:12:45.185Z,99737.81
2023-06-30T14:15:48.357Z,99741.75
2023-06-30T14:18:50.869Z,99728.19
2023-06-30T14:21:53.400Z,99730.09
2023-06-30T14:24:55.752Z,99706.16
2023-06-30T14:27:58.484Z,99706.50
2023-06-30T14:31:00.988Z,99700.62
2023-06-30T14:34:03.908Z,99709.78
2023-06-30T14:37:06.330Z,99704.72
2023-06-30T14:40:09.562Z,99679.84
2023-06-30T14:43:11.965Z,99673.06
2023-06-30T14:46:14.726Z,99681.09
2023-06-30T14:49:17.078Z,99673.87
2023-06-30T14:52:19.795Z,99680.78
2023-06-30T14:55:22.280Z,99683.00
2023-06-30T14:58:24.960Z,99658.13
2023-06-30T15:01:27.327Z,99667.41
2023-06-30T15:04:29.986Z,99650.87
2023-06-30T15:07:32.835Z,99660.34
2023-06-30T15:10:35.590Z,99661.25
2023-06-30T15:13:39.219Z,99645.81
2023-06-30T15:16:41.988Z,99643.03
2023-06-30T15:19:46.520Z,99647.09
2023-06-30T15:22:50.422Z,99628.66
2023-06-30T15:25:52.765Z,99631.34
2023-06-30T15:28:55.478Z,99640.66
2023-06-30T15:31:57.934Z,99619.37
2023-06-30T15:35:00.683Z,99633.25
2023-06-30T15:38:03.108Z,99622.22
2023-06-30T15:41:21.565Z,99615.91
2023-06-30T15:44:26.208Z,99621.31
2023-06-30T15:47:29.152Z,99633.44
2023-06-30T15:50:32.851Z,99620.47
2023-06-30T15:53:35.785Z,99620.63
2023-06-30T15:56:38.186Z,99613.56
2023-06-30T15:59:40.968Z,99612.13
2023-06-30T16:02:43.484Z,99611.19
2023-06-30T16:05:46.692Z,99604.59
2023-06-30T16:08:49.221Z,99590.72
2023-06-30T16:11:51.925Z,99610.41
2023-06-30T16:14:54.277Z,99601.12
2023-06-30T16:17:57.003Z,99598.13
2023-06-30T16:21:01.868Z,99591.03
2023-06-30T16:24:04.819Z,99597.16
2023-06-30T16:27:08.481Z,99604.25
2023-06-30T16:30:30.808Z,99594.75
2023-06-30T16:33:35.123Z,99586.75
2023-06-30T16:36:40.010Z,99588.78
2023-06-30T16:39:43.461Z,99579.69
2023-06-30T16:42:46.510Z,99572.13
2023-06-30T16:45:49.555Z,99574.59
2023-06-30T16:48:52.393Z,99580.78
2023-06-30T16:51:54.709Z,99582.50
2023-06-30T16:54:57.401Z,99595.66
2023-06-30T16:58:02.013Z,99583.06
2023-06-30T17:01:04.689Z,99575.97
2023-06-30T17:04:07.229Z,99579.28
2023-06-30T17:07:15.132Z,99564.47
2023-06-30T17:10:17.521Z,99580.50
2023-06-30T17:13:20.173Z,99572.59
2023-06-30T17:16:24.901Z,99584.25
2023-06-30T17:19:28.614Z,99583.91
2023-06-30T17:22:31.198Z,99581.69
2023-06-30T17:25:33.914Z,99572.41
2023-06-30T17:28:36.266Z,99569.41
2023-06-30T17:31:39.143Z,99580.09
2023-06-30T17:34:41.578Z,99580.72
2023-06-30T17:37:44.250Z,99574.41
2023-06-30T17:40:46.682Z,99576.91
2023-06-30T17:43:49.565Z,99584.16
2023-06-30T17:46:52.504Z,99581.44
2023-06-30T17:49:55.450Z,99564.88
2023-06-30T17:52:57.989Z,99574.78
2023-06-30T17:56:00.732Z,99566.72
2023-06-30T17:59:03.190Z,99567.66
2023-06-30T18:02:06.738Z,99577.13
2023-06-30T18:05:09.852Z,99575.22
2023-06-30T18:08:13.133Z,99568.91
2023-06-30T18:11:16.202Z,99575.81
2023-06-30T18:14:18.585Z,99579.25
2023-06-30T18:17:22.707Z,99567.28
2023-06-30T18:20:25.111Z,99556.88
2023-06-30T18:23:27.818Z,99560.25
2023-06-30T18:26:30.262Z,99552.50
2023-06-30T18:29:33.007Z,99582.84
2023-06-30T18:32:35.706Z,99579.06
2023-06-30T18:35:38.453Z,99576.81
2023-06-30T18:38:40.866Z,99585.88
2023-06-30T18:41:45.285Z,99567.28
2023-06-30T18:44:47.797Z,99578.88
2023-06-30T18:47:51.093Z,99581.06
2023-06-30T18:50:53.487Z,99578.47
2023-06-30T18:53:56.959Z,99589.78
2023-06-30T18:56:59.331Z,99580.44
2023-06-30T19:00:03.742Z,99589.25
2023-06-30T19:03:06.425Z,99597.03
2023-06-30T19:06:09.374Z,99590.66
2023-06-30T19:09:11.806Z,99589.19
2023-06-30T19:12:14.523Z,99595.84
2023-06-30T19:15:16.839Z,99595.66
2023-06-30T19:18:20.930Z,99599.25
2023-06-30T19:21:26.954Z,99613.59
2023-06-30T19:24:29.819Z,99605.13
2023-06-30T19:27:32.138Z,99625.13
2023-06-30T19:30:35.180Z,99621.19
2023-06-30T19:33:39.261Z,99621.63
2023-06-30T19:36:41.897Z,99612.09
2023-06-30T19:39:45.457Z,99617.41
2023-06-30T19:42:48.049Z,99612.69
2023-06-30T19:45:51.285Z,99623.31
2023-06-30T19:48:54.245Z,99616.19
2023-06-30T19:51:56.694Z,99594.88
2023-06-30T19:54:59.302Z,99589.81
2023-06-30T19:58:03.610Z,99613.37
2023-06-30T20:01:06.271Z,99601.31
2023-06-30T20:04:08.991Z,99612.03
2023-06-30T20:07:12.418Z,99613.84
2023-06-30T20:10:15.087Z,99617.22
2023-06-30T20:13:17.463Z,99603.00
2023-06-30T20:16:20.263Z,99614.28
2023-06-30T20:19:22.734Z,99613.47
2023-06-30T20:22:25.666Z,99603.75
2023-06-30T20:25:28.607Z,99622.91
2023-06-30T20:28:31.344Z,99622.69
2023-06-30T20:31:33.866Z,99619.63
2023-06-30T20:34:36.662Z,99617.25
2023-06-30T20:37:39.110Z,99604.75
2023-06-30T20:40:41.765Z,99618.28
2023-06-30T20:43:44.126Z,99615.09
2023-06-30T20:46:46.823Z,99613.63
2023-06-30T20:49:49.241Z,99604.78
2023-06-30T20:52:51.954Z,99619.47
2023-06-30T20:55:56.195Z,99617.97
2023-06-30T20:58:59.175Z,99622.50
2023-06-30T21:02:02.604Z,99606.25
2023-06-30T21:05:05.898Z,99618.22
2023-06-30T21:08:08.253Z,99623.94
2023-06-30T21:11:11.300Z,99615.44
2023-06-30T21:14:15.170Z,99610.38
2023-06-30T21:17:18.361Z,99625.13
2023-06-30T21:20:20.973Z,99612.66
2023-06-30T21:23:23.633Z,99627.75
2023-06-30T21:26:26.042Z,99625.84
2023-06-30T21:29:29.008Z,99607.41
2023-06-30T21:32:31.741Z,99597.59
2023-06-30T21:35:34.467Z,99619.97
2023-06-30T21:38:38.192Z,99596.72
2023-06-30T21:41:40.809Z,99602.34
2023-06-30T21:44:43.654Z,99613.59
2023-06-30T21:47:46.464Z,99598.06
2023-06-30T21:50:49.062Z,99600.78
2023-06-30T21:53:52.487Z,99607.94
2023-06-30T21:56:54.846Z,99595.38
2023-06-30T21:59:57.544Z,99612.34
2023-06-30T22:03:00.309Z,99597.44
2023-06-30T22:06:03.727Z,99599.53
2023-06-30T22:09:15.236Z,99600.91
2023-06-30T22:12:18.850Z,99599.00
2023-06-30T22:15:23.114Z,99618.84
2023-06-30T22:18:25.764Z,99602.94
2023-06-30T22:21:28.102Z,99618.84
2023-06-30T22:24:30.735Z,99610.06
2023-06-30T22:27:33.192Z,99612.50
2023-06-30T22:30:35.891Z,99611.91
2023-06-30T22:33:38.977Z,99617.25
2023-06-30T22:36:41.500Z,99595.19
2023-06-30T22:39:46.182Z,99606.31
2023-06-30T22:42:49.307Z,99600.38
2023-06-30T22:45:51.972Z,99605.13
2023-06-30T22:48:54.703Z,99594.12
2023-06-30T22:51:57.087Z,99605.97
2023-06-30T22:54:59.834Z,99604.50
2023-06-30T22:58:02.900Z,99600.53
2023-06-30T23:01:07.191Z,99581.16
2023-06-30T23:04:09.716Z,99599.06
2023-06-30T23:07:12.628Z,99582.09
2023-06-30T23:10:16.387Z,99580.09
2023-06-30T23:13:20.478Z,99588.50
2023-06-30T23:16:23.590Z,99584.09
2023-06-30T23:19:27.586Z,99580.94
2023-06-30T23:22:30.823Z,99591.59
2023-06-30T23:25:35.042Z,99581.53
2023-06-30T23:28:44.482Z,99593.03
2023-06-30T23:31:48.469Z,99595.63
2023-06-30T23:34:51.366Z,99578.75
2023-06-30T23:37:54.500Z,99595.81
2023-06-30T23:40:56.943Z,99593.34
2023-06-30T23:43:59.522Z,99592.19
2023-06-30T23:47:04.454Z,99593.34
2023-06-30T23:50:07.789Z,99595.81
2023-06-30T23:53:10.131Z,99594.78
2023-06-30T23:56:12.769Z,99593.16
2023-06-30T23:59:15.114Z,99575.75
